Time;durP1;ratioP1;P1;durP2;ratioP2;P2;SDS_P1;SDS_P2;PMS_P1;PMS_P2;Temp;Humidity;BMP_temperature;BMP_pressure;BME280_temperature;BME280_humidity;BME280_pressure;Samples;Min_cycle;Max_cycle;Signal;HPM_P1;HPM_P2
2021/12/31 00:02:07;;;;;;;13.45;4.82;;;;;;;;;;5074121;28;20074;-37
2021/12/31 00:04:32;;;;;;;5.25;2.35;;;;;;;;;;5074328;28;20016;-38
2021/12/31 00:06:58;;;;;;;7.50;2.20;;;;;;;;;;5074023;28;20422;-38
2021/12/31 00:09:23;;;;;;;4.60;2.65;;;;;;;;;;5074262;28;20083;-38
2021/12/31 00:11:49;;;;;;;8.63;3.33;;;;;;;;;;5074145;28;20545;-38
2021/12/31 00:14:15;;;;;;;5.82;2.42;;;;;;;;;;5074068;28;20093;-37
2021/12/31 00:16:41;;;;;;;4.32;1.90;;;;;;;;;;5073791;28;20028;-37
2021/12/31 00:19:06;;;;;;;7.22;2.47;;;;;;;;;;5073710;28;20548;-37
2021/12/31 00:21:36;;;;;;;5.53;2.20;;;;;;;;;;5074010;28;20047;-38
2021/12/31 00:24:02;;;;;;;2.17;1.95;;;;;;;;;;5073908;28;20115;-37
2021/12/31 00:26:27;;;;;;;3.90;2.30;;;;;;;;;;5073598;28;20154;-38
2021/12/31 00:28:53;;;;;;;2.10;1.92;;;;;;;;;;5073384;28;20113;-38
2021/12/31 00:31:19;;;;;;;7.85;2.83;;;;;;;;;;5072187;28;20498;-38
2021/12/31 00:33:44;;;;;;;4.30;2.80;;;;;;;;;;5073731;28;20036;-37
2021/12/31 00:36:10;;;;;;;6.38;2.40;;;;;;;;;;5073561;28;20036;-38
2021/12/31 00:38:35;;;;;;;6.30;2.65;;;;;;;;;;5073133;28;20071;-37
2021/12/31 00:41:00;;;;;;;3.63;2.08;;;;;;;;;;5073838;28;20394;-37
2021/12/31 00:43:26;;;;;;;2.05;1.52;;;;;;;;;;5073291;28;20027;-37
2021/12/31 00:45:51;;;;;;;4.78;2.42;;;;;;;;;;5073222;28;20041;-38
2021/12/31 00:48:17;;;;;;;3.13;1.88;;;;;;;;;;5073574;28;20021;-38
2021/12/31 00:50:42;;;;;;;4.00;1.88;;;;;;;;;;5073401;28;20111;-38
2021/12/31 00:53:08;;;;;;;2.42;1.83;;;;;;;;;;5073158;28;20044;-38
2021/12/31 00:55:33;;;;;;;3.08;1.75;;;;;;;;;;5073356;28;20024;-37
2021/12/31 00:57:59;;;;;;;2.85;1.50;;;;;;;;;;5073330;28;20479;-38
2021/12/31 01:00:24;;;;;;;4.63;2.22;;;;;;;;;;5072916;28;20075;-38
2021/12/31 01:02:50;;;;;;;2.38;1.60;;;;;;;;;;5072781;28;20078;-38
2021/12/31 01:05:16;;;;;;;2.35;1.48;;;;;;;;;;5073214;28;20085;-38
2021/12/31 01:07:41;;;;;;;2.38;1.75;;;;;;;;;;5073145;28;20476;-38
2021/12/31 01:10:10;;;;;;;4.53;1.55;;;;;;;;;;5073024;28;20040;-38
2021/12/31 01:12:36;;;;;;;3.20;2.25;;;;;;;;;;5072650;28;20490;-38
2021/12/31 01:15:05;;;;;;;5.35;1.80;;;;;;;;;;5072780;28;20028;-38
2021/12/31 01:20:03;;;;;;;3.83;1.80;;;;;;;;;;5072456;28;20414;-38
2021/12/31 01:22:31;;;;;;;4.55;2.35;;;;;;;;;;5072412;28;20459;-38
2021/12/31 01:24:57;;;;;;;3.63;1.20;;;;;;;;;;5072954;28;20042;-38
2021/12/31 01:27:22;;;;;;;1.63;1.15;;;;;;;;;;5071171;28;20115;-38
2021/12/31 01:29:48;;;;;;;3.05;1.70;;;;;;;;;;5072377;28;20037;-38
2021/12/31 01:32:13;;;;;;;2.42;1.30;;;;;;;;;;5072418;28;20019;-38
2021/12/31 01:34:39;;;;;;;1.50;1.27;;;;;;;;;;5072284;28;20033;-37
2021/12/31 01:37:04;;;;;;;3.45;1.60;;;;;;;;;;5072298;28;20027;-38
2021/12/31 01:39:30;;;;;;;3.72;1.40;;;;;;;;;;5071121;28;20090;-38
2021/12/31 01:41:58;;;;;;;3.05;1.90;;;;;;;;;;5072206;28;20033;-38
2021/12/31 01:44:28;;;;;;;1.88;1.40;;;;;;;;;;5072298;28;20028;-37
2021/12/31 01:46:54;;;;;;;2.72;2.10;;;;;;;;;;5072062;28;20029;-38
2021/12/31 01:49:21;;;;;;;6.50;2.15;;;;;;;;;;5087706;28;20086;-38
2021/12/31 01:51:46;;;;;;;13.18;4.63;;;;;;;;;;5071930;28;20056;-37
2021/12/31 01:54:12;;;;;;;7.10;2.10;;;;;;;;;;5072265;28;20056;-37
2021/12/31 01:56:37;;;;;;;2.67;1.75;;;;;;;;;;5071745;28;20020;-38
2021/12/31 01:59:04;;;;;;;6.00;3.45;;;;;;;;;;5072126;28;20040;-37
2021/12/31 02:01:30;;;;;;;3.88;2.17;;;;;;;;;;5072084;28;20012;-38
2021/12/31 02:03:55;;;;;;;9.10;3.28;;;;;;;;;;5070369;28;20390;-38
2021/12/31 02:06:21;;;;;;;6.47;2.95;;;;;;;;;;5071785;28;20117;-37
2021/12/31 02:08:46;;;;;;;3.97;1.80;;;;;;;;;;5072050;28;20029;-38
2021/12/31 02:11:11;;;;;;;3.80;2.00;;;;;;;;;;5071559;28;20099;-37
2021/12/31 02:13:37;;;;;;;4.97;2.38;;;;;;;;;;5070296;28;20074;-38
2021/12/31 02:16:03;;;;;;;6.88;1.75;;;;;;;;;;5071901;28;20024;-41
2021/12/31 02:18:31;;;;;;;5.28;1.95;;;;;;;;;;5071591;28;20387;-38
2021/12/31 02:20:56;;;;;;;6.00;2.08;;;;;;;;;;5071917;28;20032;-37
2021/12/31 02:23:25;;;;;;;12.23;3.58;;;;;;;;;;5071753;28;20410;-38
2021/12/31 02:25:51;;;;;;;2.63;2.00;;;;;;;;;;5071449;28;20025;-38
2021/12/31 02:28:18;;;;;;;6.38;3.00;;;;;;;;;;5071802;28;20382;-38
2021/12/31 02:30:43;;;;;;;5.35;1.75;;;;;;;;;;5071391;28;20029;-37
2021/12/31 02:33:09;;;;;;;9.75;3.38;;;;;;;;;;5071452;28;20025;-37
2021/12/31 02:35:35;;;;;;;5.45;2.58;;;;;;;;;;5071348;28;20131;-38
2021/12/31 02:38:02;;;;;;;7.30;2.65;;;;;;;;;;5071205;28;20067;-38
2021/12/31 02:40:28;;;;;;;11.57;3.05;;;;;;;;;;5071321;28;20040;-37
2021/12/31 02:42:55;;;;;;;5.25;2.88;;;;;;;;;;5071186;28;20403;-38
2021/12/31 02:45:21;;;;;;;3.85;2.50;;;;;;;;;;5071335;28;20028;-38
2021/12/31 02:47:47;;;;;;;3.13;1.70;;;;;;;;;;5071122;28;20029;-37
2021/12/31 02:50:15;;;;;;;4.13;1.88;;;;;;;;;;5071239;28;20116;-37
2021/12/31 02:52:41;;;;;;;4.65;2.25;;;;;;;;;;5071292;28;20020;-38
2021/12/31 02:55:06;;;;;;;3.25;1.80;;;;;;;;;;5071208;28;20494;-37
2021/12/31 02:57:32;;;;;;;3.10;1.67;;;;;;;;;;5071220;28;20482;-37
2021/12/31 02:59:58;;;;;;;2.90;1.48;;;;;;;;;;5071308;28;20037;-38
2021/12/31 03:02:25;;;;;;;3.72;1.80;;;;;;;;;;5071436;28;20024;-38
2021/12/31 03:04:53;;;;;;;5.32;2.20;;;;;;;;;;5071325;28;20397;-37
2021/12/31 03:07:19;;;;;;;1.38;1.27;;;;;;;;;;5071045;28;20052;-38
2021/12/31 03:09:46;;;;;;;2.63;1.23;;;;;;;;;;5071059;28;20368;-37
2021/12/31 03:12:13;;;;;;;3.15;1.10;;;;;;;;;;5070930;28;20559;-38
2021/12/31 03:14:39;;;;;;;2.47;1.00;;;;;;;;;;5071240;28;20032;-38
2021/12/31 03:17:05;;;;;;;1.73;1.48;;;;;;;;;;5071037;28;20036;-37
2021/12/31 03:19:30;;;;;;;1.77;1.63;;;;;;;;;;5071109;28;20119;-38
2021/12/31 03:21:56;;;;;;;2.45;1.65;;;;;;;;;;5071191;28;20028;-38
2021/12/31 03:24:21;;;;;;;3.97;0.98;;;;;;;;;;5070911;28;20028;-38
2021/12/31 03:26:47;;;;;;;4.15;1.65;;;;;;;;;;5071158;28;20032;-38
2021/12/31 03:29:12;;;;;;;16.58;3.05;;;;;;;;;;5070807;28;20401;-38
2021/12/31 03:31:38;;;;;;;12.50;3.72;;;;;;;;;;5071057;28;20078;-37
2021/12/31 03:34:03;;;;;;;13.10;4.03;;;;;;;;;;5071105;28;20616;-38
2021/12/31 03:36:29;;;;;;;26.77;5.45;;;;;;;;;;5070993;28;20400;-37
2021/12/31 03:38:54;;;;;;;19.02;5.43;;;;;;;;;;5070593;28;20441;-37
2021/12/31 03:41:20;;;;;;;8.68;3.42;;;;;;;;;;5070797;28;20108;-37
2021/12/31 03:43:45;;;;;;;6.88;3.42;;;;;;;;;;5070838;28;20040;-38
2021/12/31 03:46:11;;;;;;;16.95;3.88;;;;;;;;;;5070768;28;20032;-38
2021/12/31 03:48:36;;;;;;;9.57;3.17;;;;;;;;;;5070561;28;20558;-37
2021/12/31 03:51:02;;;;;;;4.78;2.88;;;;;;;;;;5070920;28;20038;-37
2021/12/31 03:53:27;;;;;;;19.73;4.25;;;;;;;;;;5070723;28;20024;-37
2021/12/31 03:55:53;;;;;;;6.47;2.40;;;;;;;;;;5070694;28;20040;-38
2021/12/31 03:58:18;;;;;;;15.32;4.90;;;;;;;;;;5070698;28;20031;-37
2021/12/31 04:00:45;;;;;;;9.68;2.75;;;;;;;;;;5070463;28;20040;-37
2021/12/31 04:03:11;;;;;;;4.35;2.58;;;;;;;;;;5072247;28;20348;-38
2021/12/31 04:05:38;;;;;;;2.50;2.30;;;;;;;;;;5074000;28;20047;-37
2021/12/31 04:08:03;;;;;;;7.22;2.22;;;;;;;;;;5074013;28;20113;-37
2021/12/31 04:10:29;;;;;;;3.80;1.67;;;;;;;;;;5074268;28;20494;-38
2021/12/31 04:12:54;;;;;;;2.67;2.08;;;;;;;;;;5074091;28;20028;-37
2021/12/31 04:15:20;;;;;;;5.05;2.28;;;;;;;;;;5073953;28;20024;-38
2021/12/31 04:17:45;;;;;;;5.05;1.80;;;;;;;;;;5073793;28;20063;-37
2021/12/31 04:20:22;;;;;;;3.40;1.92;;;;;;;;;;5074031;28;20036;-38
2021/12/31 04:22:54;;;;;;;5.75;2.70;;;;;;;;;;5074069;28;20021;-43
2021/12/31 04:25:20;;;;;;;3.65;2.22;;;;;;;;;;5073651;28;20528;-38
2021/12/31 04:27:45;;;;;;;4.57;2.25;;;;;;;;;;5073887;28;20479;-38
2021/12/31 04:30:11;;;;;;;3.95;1.83;;;;;;;;;;5073657;28;20121;-37
2021/12/31 04:32:36;;;;;;;5.18;1.75;;;;;;;;;;5073430;28;20118;-37
2021/12/31 04:35:02;;;;;;;2.67;1.33;;;;;;;;;;5073954;28;20033;-37
2021/12/31 04:37:27;;;;;;;5.35;1.77;;;;;;;;;;5073491;28;20455;-37
2021/12/31 04:39:53;;;;;;;5.78;1.95;;;;;;;;;;5073103;28;20048;-37
2021/12/31 04:42:19;;;;;;;3.05;1.95;;;;;;;;;;5073668;28;20040;-38
2021/12/31 04:44:44;;;;;;;4.80;2.60;;;;;;;;;;5073542;28;20036;-37
2021/12/31 04:47:10;;;;;;;3.35;1.85;;;;;;;;;;5073636;28;20517;-37
2021/12/31 04:49:35;;;;;;;3.13;1.75;;;;;;;;;;5073226;28;20153;-37
2021/12/31 04:52:01;;;;;;;5.68;2.63;;;;;;;;;;5073497;28;20514;-38
2021/12/31 04:54:26;;;;;;;9.90;2.10;;;;;;;;;;5073179;28;20047;-38
2021/12/31 04:56:53;;;;;;;5.13;1.98;;;;;;;;;;5073304;28;20052;-38
2021/12/31 04:59:20;;;;;;;6.50;2.40;;;;;;;;;;5073086;28;20475;-41
2021/12/31 05:01:45;;;;;;;3.38;1.83;;;;;;;;;;5072780;28;20020;-38
2021/12/31 05:04:11;;;;;;;10.85;2.45;;;;;;;;;;5073286;28;20055;-38
2021/12/31 05:06:37;;;;;;;4.82;2.10;;;;;;;;;;5073212;28;20028;-38
2021/12/31 05:09:03;;;;;;;11.40;3.05;;;;;;;;;;5072898;28;20029;-37
2021/12/31 05:11:28;;;;;;;9.25;3.47;;;;;;;;;;5072915;28;20027;-38
2021/12/31 05:13:54;;;;;;;4.85;1.83;;;;;;;;;;5072542;28;20036;-37
2021/12/31 05:16:19;;;;;;;7.13;3.15;;;;;;;;;;5088651;28;20063;-38
2021/12/31 05:18:45;;;;;;;8.18;2.25;;;;;;;;;;5072568;28;20479;-37
2021/12/31 05:21:10;;;;;;;6.47;2.35;;;;;;;;;;5072670;28;20021;-38
2021/12/31 05:23:36;;;;;;;2.40;1.70;;;;;;;;;;5072495;28;20375;-37
2021/12/31 05:26:01;;;;;;;4.32;1.42;;;;;;;;;;5072567;28;20106;-37
2021/12/31 05:28:26;;;;;;;9.25;3.35;;;;;;;;;;5072677;28;20025;-44
2021/12/31 05:30:52;;;;;;;6.10;1.30;;;;;;;;;;5072760;28;20028;-37
2021/12/31 05:33:17;;;;;;;4.18;1.77;;;;;;;;;;5072660;28;20556;-37
2021/12/31 05:35:42;;;;;;;7.22;2.20;;;;;;;;;;5072558;28;20017;-37
2021/12/31 05:38:08;;;;;;;2.92;1.50;;;;;;;;;;5072172;28;20698;-38
2021/12/31 05:40:34;;;;;;;5.22;2.08;;;;;;;;;;5072399;28;20078;-37
2021/12/31 05:43:00;;;;;;;4.10;1.88;;;;;;;;;;5072128;28;20501;-38
2021/12/31 05:45:25;;;;;;;2.65;1.10;;;;;;;;;;5072171;28;20024;-37
2021/12/31 05:47:51;;;;;;;4.15;1.65;;;;;;;;;;5072052;28;20035;-37
2021/12/31 05:50:27;;;;;;;4.68;1.40;;;;;;;;;;5072171;28;20048;-38
2021/12/31 05:52:56;;;;;;;5.93;1.80;;;;;;;;;;5071886;28;20028;-38
2021/12/31 05:55:22;;;;;;;2.97;1.70;;;;;;;;;;5072121;28;20017;-37
2021/12/31 05:57:47;;;;;;;12.88;3.50;;;;;;;;;;5072095;28;20032;-37
2021/12/31 06:00:13;;;;;;;13.25;2.50;;;;;;;;;;5072096;28;20033;-38
2021/12/31 06:02:38;;;;;;;7.65;2.53;;;;;;;;;;5071848;28;20035;-37
2021/12/31 06:05:04;;;;;;;6.22;2.80;;;;;;;;;;5071671;28;20111;-38
2021/12/31 06:07:30;;;;;;;19.50;4.78;;;;;;;;;;5071770;28;20048;-38
2021/12/31 06:09:55;;;;;;;14.82;4.22;;;;;;;;;;5071643;28;20075;-38
2021/12/31 06:12:23;;;;;;;14.27;4.05;;;;;;;;;;5071619;28;20037;-37
2021/12/31 06:14:49;;;;;;;6.53;2.90;;;;;;;;;;5071916;28;20039;-38
2021/12/31 06:17:17;;;;;;;5.60;3.58;;;;;;;;;;5071562;28;20033;-38
2021/12/31 06:19:42;;;;;;;9.45;2.63;;;;;;;;;;5071459;28;20039;-38
2021/12/31 06:22:08;;;;;;;9.13;3.17;;;;;;;;;;5071481;28;20020;-37
2021/12/31 06:24:33;;;;;;;11.32;4.13;;;;;;;;;;5071506;28;20113;-37
2021/12/31 06:26:59;;;;;;;4.57;3.00;;;;;;;;;;5071042;28;20135;-37
2021/12/31 06:29:24;;;;;;;6.75;2.20;;;;;;;;;;5071718;28;20142;-38
2021/12/31 06:31:50;;;;;;;6.47;2.67;;;;;;;;;;5071336;28;20494;-38
2021/12/31 06:34:15;;;;;;;1.35;1.25;;;;;;;;;;5071431;28;20017;-37
2021/12/31 06:36:41;;;;;;;5.82;2.15;;;;;;;;;;5071295;28;20032;-40
2021/12/31 06:39:06;;;;;;;3.80;2.47;;;;;;;;;;5071153;28;20057;-37
2021/12/31 06:41:32;;;;;;;5.57;1.85;;;;;;;;;;5071523;28;20032;-38
2021/12/31 06:43:57;;;;;;;13.55;3.25;;;;;;;;;;5071240;28;20418;-38
2021/12/31 06:46:23;;;;;;;6.35;2.20;;;;;;;;;;5071432;28;20024;-37
2021/12/31 06:48:48;;;;;;;3.92;2.03;;;;;;;;;;5071095;28;20078;-37
2021/12/31 06:51:14;;;;;;;4.93;2.05;;;;;;;;;;5087191;28;20034;-37
2021/12/31 06:53:39;;;;;;;3.80;2.05;;;;;;;;;;5071151;28;20118;-38
2021/12/31 06:56:05;;;;;;;4.03;1.35;;;;;;;;;;5086761;28;20390;-39
2021/12/31 06:58:31;;;;;;;7.78;3.35;;;;;;;;;;5071525;28;20020;-38
2021/12/31 07:00:56;;;;;;;9.15;4.03;;;;;;;;;;5070918;28;20050;-38
2021/12/31 07:03:21;;;;;;;3.78;1.90;;;;;;;;;;5071435;28;20523;-37
2021/12/31 07:05:47;;;;;;;6.05;2.65;;;;;;;;;;5071012;28;20040;-37
2021/12/31 07:08:13;;;;;;;8.60;3.22;;;;;;;;;;5071059;28;20028;-37
2021/12/31 07:10:38;;;;;;;6.18;2.47;;;;;;;;;;5071281;28;20025;-37
2021/12/31 07:13:05;;;;;;;2.60;1.88;;;;;;;;;;5071299;28;20378;-37
2021/12/31 07:15:31;;;;;;;3.97;2.40;;;;;;;;;;5071305;28;20029;-37
2021/12/31 07:17:56;;;;;;;4.70;2.33;;;;;;;;;;5070951;28;20390;-37
2021/12/31 07:20:22;;;;;;;8.07;4.50;;;;;;;;;;5070873;28;20067;-37
2021/12/31 07:22:47;;;;;;;4.20;2.90;;;;;;;;;;5071032;28;20021;-37
2021/12/31 07:25:13;;;;;;;4.97;3.40;;;;;;;;;;5070902;28;20056;-37
2021/12/31 07:27:38;;;;;;;4.22;3.28;;;;;;;;;;5071159;28;20017;-37
2021/12/31 07:30:04;;;;;;;6.25;2.90;;;;;;;;;;5070964;28;20086;-37
2021/12/31 07:32:34;;;;;;;7.68;3.42;;;;;;;;;;5071020;28;20025;-37
2021/12/31 07:35:00;;;;;;;5.50;3.40;;;;;;;;;;5070846;28;20043;-38
2021/12/31 07:37:25;;;;;;;3.60;2.10;;;;;;;;;;5086722;28;20390;-39
2021/12/31 07:39:58;;;;;;;5.00;2.25;;;;;;;;;;5074273;28;20052;-37
2021/12/31 07:42:24;;;;;;;2.65;2.20;;;;;;;;;;5074502;28;20741;-37
2021/12/31 07:44:50;;;;;;;2.67;2.22;;;;;;;;;;5074375;28;20474;-37
2021/12/31 07:47:15;;;;;;;3.95;1.85;;;;;;;;;;5074424;28;20075;-38
2021/12/31 07:49:41;;;;;;;4.40;1.83;;;;;;;;;;5074626;28;20059;-37
2021/12/31 07:52:06;;;;;;;6.95;2.35;;;;;;;;;;5074538;28;20041;-38
2021/12/31 07:54:31;;;;;;;4.07;2.08;;;;;;;;;;5074685;28;20368;-37
2021/12/31 07:56:57;;;;;;;6.75;1.90;;;;;;;;;;5074409;28;20037;-38
2021/12/31 07:59:23;;;;;;;6.30;2.67;;;;;;;;;;5074115;28;20032;-37
2021/12/31 08:01:48;;;;;;;3.35;1.73;;;;;;;;;;5074086;28;20028;-38
2021/12/31 08:04:14;;;;;;;1.45;1.17;;;;;;;;;;5074443;28;20036;-37
2021/12/31 08:06:40;;;;;;;2.47;1.30;;;;;;;;;;5073940;28;20483;-37
2021/12/31 08:09:05;;;;;;;4.22;2.13;;;;;;;;;;5074030;28;20032;-37
2021/12/31 08:11:31;;;;;;;3.38;2.33;;;;;;;;;;5074018;28;20044;-37
2021/12/31 08:13:56;;;;;;;5.65;2.58;;;;;;;;;;5074102;28;20024;-38
2021/12/31 08:16:22;;;;;;;6.85;4.88;;;;;;;;;;5089878;28;20471;-37
2021/12/31 08:18:47;;;;;;;9.45;5.15;;;;;;;;;;5072469;28;20016;-37
2021/12/31 08:21:13;;;;;;;7.10;4.95;;;;;;;;;;5073747;28;20075;-37
2021/12/31 08:23:38;;;;;;;9.95;5.82;;;;;;;;;;5073621;28;20054;-37
2021/12/31 08:26:05;;;;;;;10.07;6.30;;;;;;;;;;5073793;28;20206;-37
2021/12/31 08:28:30;;;;;;;8.13;5.45;;;;;;;;;;5073606;28;20107;-38
2021/12/31 08:30:58;;;;;;;3.78;2.78;;;;;;;;;;5073591;28;20107;-38
2021/12/31 08:33:24;;;;;;;5.18;2.70;;;;;;;;;;5073825;28;20028;-38
2021/12/31 08:35:49;;;;;;;6.47;2.70;;;;;;;;;;5073431;28;20098;-38
2021/12/31 08:38:15;;;;;;;4.28;2.20;;;;;;;;;;5073610;28;20048;-37
2021/12/31 08:40:40;;;;;;;4.22;2.70;;;;;;;;;;5073543;28;20049;-37
2021/12/31 08:43:05;;;;;;;2.50;1.90;;;;;;;;;;5073686;28;20381;-37
2021/12/31 08:45:32;;;;;;;2.10;1.25;;;;;;;;;;5073411;28;20195;-38
2021/12/31 08:47:58;;;;;;;3.28;2.08;;;;;;;;;;5071750;28;20074;-37
2021/12/31 08:50:24;;;;;;;3.13;1.27;;;;;;;;;;5073170;28;20036;-37
2021/12/31 08:52:49;;;;;;;4.85;1.58;;;;;;;;;;5073371;28;20033;-38
2021/12/31 08:55:15;;;;;;;1.98;1.40;;;;;;;;;;5073245;28;20036;-38
2021/12/31 08:57:40;;;;;;;1.58;1.25;;;;;;;;;;5072958;28;20040;-38
2021/12/31 09:00:07;;;;;;;2.13;1.92;;;;;;;;;;5073141;28;20033;-37
2021/12/31 09:02:33;;;;;;;2.13;1.50;;;;;;;;;;5073057;28;20021;-38
2021/12/31 09:04:59;;;;;;;1.48;1.33;;;;;;;;;;5088461;28;20041;-37
2021/12/31 09:07:26;;;;;;;1.88;1.00;;;;;;;;;;5073278;28;20108;-37
2021/12/31 09:09:52;;;;;;;2.03;1.20;;;;;;;;;;5073057;28;20078;-38
2021/12/31 09:12:17;;;;;;;2.53;1.15;;;;;;;;;;5072850;28;20028;-38
2021/12/31 09:14:42;;;;;;;3.35;2.40;;;;;;;;;;5072760;28;20028;-37
2021/12/31 09:17:08;;;;;;;6.82;2.25;;;;;;;;;;5072655;28;20107;-38
2021/12/31 09:19:34;;;;;;;0.63;0.52;;;;;;;;;;5072676;28;20044;-37
2021/12/31 09:21:59;;;;;;;0.95;0.82;;;;;;;;;;5072660;28;20046;-37
2021/12/31 09:24:25;;;;;;;5.15;2.00;;;;;;;;;;5072594;28;20039;-37
2021/12/31 09:26:50;;;;;;;3.85;2.60;;;;;;;;;;5072520;28;20020;-37
2021/12/31 09:29:18;;;;;;;2.83;1.15;;;;;;;;;;5088036;28;20029;-38
2021/12/31 09:31:44;;;;;;;1.63;0.73;;;;;;;;;;5072617;28;20036;-37
2021/12/31 09:34:09;;;;;;;1.67;1.08;;;;;;;;;;5072455;28;20028;-37
2021/12/31 09:36:35;;;;;;;1.05;0.95;;;;;;;;;;5087975;28;20048;-37
2021/12/31 09:39:01;;;;;;;0.80;0.80;;;;;;;;;;5072022;28;20079;-37
2021/12/31 09:41:26;;;;;;;0.93;0.52;;;;;;;;;;5072231;28;20056;-37
2021/12/31 09:43:52;;;;;;;1.08;0.60;;;;;;;;;;5072487;28;20035;-38
2021/12/31 09:46:18;;;;;;;2.10;1.75;;;;;;;;;;5072195;28;20024;-37
2021/12/31 09:48:44;;;;;;;1.55;0.95;;;;;;;;;;5072330;28;20028;-37
2021/12/31 09:51:10;;;;;;;1.60;1.13;;;;;;;;;;5072108;28;20073;-37
2021/12/31 09:53:35;;;;;;;1.17;0.98;;;;;;;;;;5071862;28;20032;-38
2021/12/31 09:56:01;;;;;;;9.95;1.20;;;;;;;;;;5071953;28;20037;-37
2021/12/31 09:58:27;;;;;;;3.08;1.27;;;;;;;;;;5071992;28;20040;-37
2021/12/31 10:00:54;;;;;;;3.95;1.40;;;;;;;;;;5069673;28;20032;-38
2021/12/31 10:03:21;;;;;;;1.10;0.80;;;;;;;;;;5072085;28;20048;-37
2021/12/31 10:05:48;;;;;;;1.05;0.50;;;;;;;;;;5087391;28;20032;-37
2021/12/31 10:08:14;;;;;;;1.00;0.60;;;;;;;;;;5071791;28;20032;-38
2021/12/31 10:10:39;;;;;;;1.38;0.65;;;;;;;;;;5071676;28;20055;-38
2021/12/31 10:13:07;;;;;;;1.38;0.80;;;;;;;;;;5071843;28;20031;-38
2021/12/31 10:15:37;;;;;;;2.05;0.88;;;;;;;;;;5071725;28;20020;-37
2021/12/31 10:18:08;;;;;;;1.38;0.95;;;;;;;;;;5071607;28;20484;-38
2021/12/31 10:20:46;;;;;;;1.10;0.50;;;;;;;;;;5071468;28;20422;-37
2021/12/31 10:23:12;;;;;;;0.85;0.73;;;;;;;;;;5071536;28;20017;-37
2021/12/31 10:25:39;;;;;;;0.52;0.40;;;;;;;;;;5071496;28;20103;-37
2021/12/31 10:28:12;;;;;;;1.50;0.77;;;;;;;;;;5087422;28;20028;-38
2021/12/31 10:30:38;;;;;;;2.45;0.90;;;;;;;;;;5071486;28;20043;-37
2021/12/31 10:33:03;;;;;;;1.70;0.50;;;;;;;;;;5071446;28;20021;-37
2021/12/31 10:35:39;;;;;;;1.05;0.63;;;;;;;;;;5071672;28;20024;-38
2021/12/31 10:38:06;;;;;;;1.95;0.80;;;;;;;;;;5071119;28;20040;-38
2021/12/31 10:40:58;;;;;;;1.23;0.75;;;;;;;;;;5071636;28;20437;-38
2021/12/31 10:43:25;;;;;;;2.05;0.88;;;;;;;;;;5069396;28;20044;-37
2021/12/31 10:45:57;;;;;;;1.33;0.93;;;;;;;;;;5071549;28;20042;-38
2021/12/31 10:48:36;;;;;;;1.67;0.93;;;;;;;;;;5071511;28;20051;-37
2021/12/31 10:51:01;;;;;;;0.82;0.80;;;;;;;;;;5071168;28;20360;-38
2021/12/31 10:53:34;;;;;;;1.23;0.70;;;;;;;;;;5071478;28;20035;-37
2021/12/31 10:56:13;;;;;;;0.88;0.82;;;;;;;;;;5071103;28;20025;-37
2021/12/31 10:58:40;;;;;;;0.80;0.80;;;;;;;;;;5071180;28;20128;-38
2021/12/31 11:01:12;;;;;;;2.50;0.85;;;;;;;;;;5071143;28;20032;-38
2021/12/31 11:03:38;;;;;;;0.22;0.22;;;;;;;;;;5071253;28;20029;-37
2021/12/31 11:06:05;;;;;;;2.75;0.60;;;;;;;;;;5071092;28;20020;-38
2021/12/31 11:08:33;;;;;;;1.58;1.35;;;;;;;;;;5071157;28;20028;-37
2021/12/31 11:10:59;;;;;;;0.52;0.40;;;;;;;;;;5070860;28;20021;-37
2021/12/31 11:13:28;;;;;;;0.57;0.50;;;;;;;;;;5090657;28;20055;-39
2021/12/31 11:15:54;;;;;;;1.55;0.70;;;;;;;;;;5075017;28;20731;-38
2021/12/31 11:18:23;;;;;;;3.92;1.30;;;;;;;;;;5075022;28;20055;-38
2021/12/31 11:20:49;;;;;;;1.40;0.70;;;;;;;;;;5074868;28;20047;-38
2021/12/31 11:23:15;;;;;;;1.33;0.63;;;;;;;;;;5074979;28;20460;-37
2021/12/31 11:25:58;;;;;;;0.85;0.68;;;;;;;;;;5074739;28;20103;-37
2021/12/31 11:28:25;;;;;;;0.57;0.52;;;;;;;;;;5075147;28;20028;-37
2021/12/31 11:30:51;;;;;;;0.95;0.50;;;;;;;;;;5075031;28;20020;-37
2021/12/31 11:33:18;;;;;;;2.10;0.77;;;;;;;;;;5074734;28;20033;-37
2021/12/31 11:35:46;;;;;;;0.52;0.50;;;;;;;;;;5074925;28;20025;-37
2021/12/31 11:38:11;;;;;;;0.40;0.40;;;;;;;;;;5074605;28;20041;-37
2021/12/31 11:40:38;;;;;;;0.50;0.50;;;;;;;;;;5074478;28;20051;-38
2021/12/31 11:43:19;;;;;;;1.13;0.52;;;;;;;;;;5090163;28;20036;-37
2021/12/31 11:46:05;;;;;;;0.45;0.45;;;;;;;;;;5074375;28;20029;-37
2021/12/31 11:48:49;;;;;;;0.63;0.63;;;;;;;;;;5067011;28;20044;-37
2021/12/31 11:51:18;;;;;;;0.90;0.80;;;;;;;;;;5074686;28;20375;-44
2021/12/31 11:53:56;;;;;;;2.00;0.77;;;;;;;;;;5074177;28;20027;-37
2021/12/31 11:56:38;;;;;;;2.22;0.90;;;;;;;;;;5074401;28;20102;-37
2021/12/31 11:59:07;;;;;;;0.98;0.88;;;;;;;;;;5074416;28;20115;-37
2021/12/31 12:01:43;;;;;;;1.00;0.80;;;;;;;;;;5074388;28;20056;-37
2021/12/31 12:04:24;;;;;;;0.70;0.40;;;;;;;;;;5074195;28;20501;-37
2021/12/31 12:07:05;;;;;;;0.63;0.60;;;;;;;;;;5073970;28;20039;-37
2021/12/31 12:09:37;;;;;;;1.30;0.57;;;;;;;;;;5074163;28;20119;-37
2021/12/31 12:12:29;;;;;;;0.98;0.40;;;;;;;;;;5074126;28;20025;-37
2021/12/31 12:14:56;;;;;;;0.25;0.25;;;;;;;;;;5069117;28;20040;-37
2021/12/31 12:17:27;;;;;;;0.40;0.40;;;;;;;;;;5074001;28;20016;-37
2021/12/31 12:19:53;;;;;;;0.73;0.73;;;;;;;;;;5073803;28;20042;-38
2021/12/31 12:22:33;;;;;;;2.03;0.50;;;;;;;;;;5073581;28;20021;-37
2021/12/31 12:25:02;;;;;;;1.20;0.60;;;;;;;;;;5072912;28;20029;-38
2021/12/31 12:27:28;;;;;;;0.50;0.40;;;;;;;;;;5073763;28;20017;-37
2021/12/31 12:29:55;;;;;;;2.88;0.47;;;;;;;;;;5073920;28;20405;-37
2021/12/31 12:33:21;;;;;;;0.68;0.52;;;;;;;;;;5073523;28;20108;-48
2021/12/31 12:35:17;;;;;;;0.80;0.50;;;;;;;;;;5064458;28;20102;-38
2021/12/31 12:37:43;;;;;;;1.17;0.60;;;;;;;;;;5073512;28;20470;-41
2021/12/31 12:40:10;;;;;;;0.40;0.40;;;;;;;;;;5073416;28;20062;-38
2021/12/31 12:42:43;;;;;;;0.88;0.88;;;;;;;;;;5073376;28;20033;-38
2021/12/31 12:45:10;;;;;;;0.63;0.60;;;;;;;;;;5073487;28;20490;-38
2021/12/31 12:47:35;;;;;;;1.10;0.47;;;;;;;;;;5073636;28;20020;-38
2021/12/31 12:50:04;;;;;;;1.00;0.63;;;;;;;;;;5073444;28;20028;-38
2021/12/31 12:52:35;;;;;;;0.73;0.50;;;;;;;;;;5073222;28;20042;-38
2021/12/31 12:55:11;;;;;;;0.55;0.30;;;;;;;;;;5073451;28;20034;-38
2021/12/31 12:57:37;;;;;;;0.63;0.60;;;;;;;;;;5073519;28;20542;-38
2021/12/31 13:00:04;;;;;;;4.80;0.55;;;;;;;;;;5073253;28;20391;-38
2021/12/31 13:02:35;;;;;;;1.65;0.75;;;;;;;;;;5073067;28;20471;-38
2021/12/31 13:05:07;;;;;;;1.90;0.50;;;;;;;;;;5072738;28;20139;-38
2021/12/31 13:07:33;;;;;;;1.17;0.45;;;;;;;;;;5073074;28;20037;-37
2021/12/31 13:10:05;;;;;;;0.80;0.60;;;;;;;;;;5072822;28;20078;-38
2021/12/31 13:12:32;;;;;;;0.57;0.57;;;;;;;;;;5072917;28;20035;-38
2021/12/31 13:14:58;;;;;;;0.65;0.57;;;;;;;;;;5072732;28;20115;-38
2021/12/31 13:17:27;;;;;;;0.75;0.60;;;;;;;;;;5073124;28;20024;-38
2021/12/31 13:20:03;;;;;;;0.38;0.38;;;;;;;;;;5072599;28;20115;-38
2021/12/31 13:22:35;;;;;;;4.00;0.50;;;;;;;;;;5072981;28;20364;-38
2021/12/31 13:25:02;;;;;;;0.65;0.45;;;;;;;;;;5072571;28;20056;-38
2021/12/31 13:27:29;;;;;;;2.30;0.73;;;;;;;;;;5072569;28;20020;-37
2021/12/31 13:30:10;;;;;;;1.80;0.63;;;;;;;;;;5072461;28;20043;-38
2021/12/31 13:32:37;;;;;;;1.00;0.70;;;;;;;;;;5072389;28;20030;-37
2021/12/31 13:35:07;;;;;;;1.95;0.82;;;;;;;;;;5072630;28;20044;-37
2021/12/31 13:37:38;;;;;;;1.00;0.75;;;;;;;;;;5072274;28;20027;-37
2021/12/31 13:40:13;;;;;;;0.95;0.65;;;;;;;;;;5071980;28;20048;-38
2021/12/31 13:42:39;;;;;;;1.02;0.80;;;;;;;;;;5072237;28;20029;-37
2021/12/31 13:45:05;;;;;;;2.83;1.13;;;;;;;;;;5072298;28;20048;-37
2021/12/31 13:47:30;;;;;;;1.17;0.77;;;;;;;;;;5072155;28;20431;-37
2021/12/31 13:50:02;;;;;;;3.03;1.50;;;;;;;;;;5072344;28;20386;-40
2021/12/31 13:52:29;;;;;;;3.00;1.20;;;;;;;;;;5072430;28;20029;-37
2021/12/31 13:54:59;;;;;;;0.90;0.90;;;;;;;;;;5072164;28;20047;-38
2021/12/31 13:57:27;;;;;;;1.30;1.20;;;;;;;;;;5072064;28;20132;-37
2021/12/31 13:59:54;;;;;;;1.83;1.58;;;;;;;;;;5071790;28;20031;-38
2021/12/31 14:02:27;;;;;;;5.07;1.75;;;;;;;;;;5072058;28;20417;-37
2021/12/31 14:04:53;;;;;;;5.60;1.52;;;;;;;;;;5071747;28;20651;-38
2021/12/31 14:07:38;;;;;;;3.08;1.65;;;;;;;;;;5071826;28;20028;-37
2021/12/31 14:10:18;;;;;;;2.70;1.63;;;;;;;;;;5071701;28;20031;-37
2021/12/31 14:12:44;;;;;;;2.40;1.05;;;;;;;;;;5071696;28;20028;-37
2021/12/31 14:15:13;;;;;;;4.70;1.65;;;;;;;;;;5071950;28;20428;-37
2021/12/31 14:17:39;;;;;;;2.00;1.55;;;;;;;;;;5072034;28;20146;-37
2021/12/31 14:20:05;;;;;;;4.68;1.48;;;;;;;;;;5070258;28;20470;-38
2021/12/31 14:22:33;;;;;;;2.30;1.58;;;;;;;;;;5071694;28;20115;-37
2021/12/31 14:25:00;;;;;;;4.10;1.48;;;;;;;;;;5071568;28;20025;-37
2021/12/31 14:27:25;;;;;;;4.10;2.13;;;;;;;;;;5071694;28;20040;-37
2021/12/31 14:29:54;;;;;;;6.40;2.47;;;;;;;;;;5071693;28;20025;-38
2021/12/31 14:32:23;;;;;;;35.28;15.38;;;;;;;;;;5071394;28;20581;-37
2021/12/31 14:34:49;;;;;;;75.50;34.45;;;;;;;;;;5071470;28;20017;-37
2021/12/31 14:37:17;;;;;;;104.70;41.92;;;;;;;;;;5071433;28;20451;-37
2021/12/31 14:39:51;;;;;;;965.55;412.92;;;;;;;;;;5071127;28;20044;-38
2021/12/31 14:42:19;;;;;;;1095.13;482.85;;;;;;;;;;5071312;28;20027;-43
2021/12/31 14:44:45;;;;;;;666.65;361.83;;;;;;;;;;5071198;28;20505;-38